createdAt,value
2022-12-03T00:01:35.462Z,7.40
2022-12-03T00:03:37.407Z,8.52
2022-12-03T00:05:41.885Z,6.55
2022-12-03T00:07:49.958Z,7.77
2022-12-03T00:09:51.697Z,7.80
2022-12-03T00:11:53.390Z,7.13
2022-12-03T00:13:55.130Z,6.13
2022-12-03T00:15:56.903Z,6.95
2022-12-03T00:17:58.766Z,6.85
2022-12-03T00:20:00.672Z,7.73
2022-12-03T00:22:02.367Z,7.38
2022-12-03T00:24:04.265Z,6.45
2022-12-03T00:26:06.010Z,6.20
2022-12-03T00:28:07.821Z,6.45
2022-12-03T00:30:10.539Z,6.78
2022-12-03T00:32:12.315Z,6.13
2022-12-03T00:34:14.065Z,6.13
2022-12-03T00:36:15.788Z,5.38
2022-12-03T00:38:17.694Z,6.00
2022-12-03T00:40:19.550Z,6.50
2022-12-03T00:42:21.297Z,7.07
2022-12-03T00:44:23.055Z,6.72
2022-12-03T00:46:25.405Z,6.15
2022-12-03T00:48:27.183Z,5.60
2022-12-03T00:50:28.985Z,7.03
2022-12-03T00:52:30.814Z,7.70
2022-12-03T00:54:32.567Z,6.50
2022-12-03T00:56:34.420Z,6.40
2022-12-03T00:58:36.223Z,6.90
2022-12-03T01:00:38.220Z,7.53
2022-12-03T01:02:40.055Z,8.75
2022-12-03T01:04:41.886Z,6.38
2022-12-03T01:06:43.664Z,7.10
2022-12-03T01:08:45.436Z,7.53
2022-12-03T01:10:47.216Z,6.60
2022-12-03T01:12:48.945Z,8.02
2022-12-03T01:14:51.124Z,5.88
2022-12-03T01:16:53.089Z,6.30
2022-12-03T01:18:54.887Z,7.60
2022-12-03T01:20:56.779Z,6.43
2022-12-03T01:22:58.557Z,7.40
2022-12-03T01:25:00.297Z,6.22
2022-12-03T01:27:02.056Z,7.63
2022-12-03T01:29:04.583Z,7.47
2022-12-03T01:31:28.519Z,7.05
2022-12-03T01:33:30.278Z,8.20
2022-12-03T01:35:31.990Z,7.53
2022-12-03T01:37:33.745Z,6.15
2022-12-03T01:39:35.552Z,6.13
2022-12-03T01:41:37.641Z,7.97
2022-12-03T01:43:39.413Z,7.55
2022-12-03T01:45:41.221Z,7.60
2022-12-03T01:47:42.990Z,6.28
2022-12-03T01:49:48.568Z,7.45
2022-12-03T01:51:52.014Z,8.15
2022-12-03T01:53:53.738Z,6.47
2022-12-03T01:55:55.709Z,8.40
2022-12-03T01:58:00.313Z,9.65
2022-12-03T02:00:02.169Z,7.00
2022-12-03T02:02:22.220Z,7.13
2022-12-03T02:04:24.300Z,9.80
2022-12-03T02:06:28.415Z,7.82
2022-12-03T02:08:35.110Z,8.02
2022-12-03T02:10:37.950Z,8.45
2022-12-03T02:12:48.802Z,7.45
2022-12-03T02:14:50.805Z,8.50
2022-12-03T02:16:52.655Z,8.20
2022-12-03T02:18:54.380Z,8.75
2022-12-03T02:21:20.829Z,9.55
2022-12-03T02:23:34.297Z,9.95
2022-12-03T02:25:36.558Z,8.30
2022-12-03T02:27:38.487Z,8.15
2022-12-03T02:29:40.257Z,8.70
2022-12-03T02:31:42.931Z,7.90
2022-12-03T02:33:44.895Z,8.02
2022-12-03T02:35:49.754Z,10.45
2022-12-03T02:38:07.476Z,9.88
2022-12-03T02:40:12.496Z,8.88
2022-12-03T02:42:33.050Z,11.10
2022-12-03T02:44:34.805Z,9.43
2022-12-03T02:46:36.721Z,9.27
2022-12-03T02:48:40.274Z,9.73
2022-12-03T02:50:46.727Z,10.20
2022-12-03T02:52:48.689Z,8.43
2022-12-03T02:54:50.518Z,9.55
2022-12-03T02:56:52.444Z,9.98
2022-12-03T02:58:56.959Z,8.38
2022-12-03T03:00:59.467Z,9.50
2022-12-03T03:03:02.795Z,12.50
2022-12-03T03:05:06.111Z,9.52
2022-12-03T03:07:08.074Z,8.90
2022-12-03T03:09:09.985Z,11.30
2022-12-03T03:11:11.850Z,10.52
2022-12-03T03:13:16.185Z,10.50
2022-12-03T03:15:21.021Z,11.35
2022-12-03T03:17:23.080Z,11.00
2022-12-03T03:19:28.999Z,10.98
2022-12-03T03:21:30.699Z,9.60
2022-12-03T03:23:32.549Z,9.85
2022-12-03T03:25:34.231Z,12.10
2022-12-03T03:27:36.394Z,10.40
2022-12-03T03:29:38.204Z,11.15
2022-12-03T03:31:41.093Z,9.90
2022-12-03T03:33:44.513Z,15.20
2022-12-03T03:35:46.860Z,10.63
2022-12-03T03:37:48.654Z,12.10
2022-12-03T03:39:50.562Z,12.27
2022-12-03T03:41:52.337Z,11.18
2022-12-03T03:43:54.260Z,14.33
2022-12-03T03:45:56.216Z,13.35
2022-12-03T03:47:58.526Z,12.90
2022-12-03T03:50:00.249Z,11.25
2022-12-03T03:52:02.304Z,11.13
2022-12-03T03:54:04.699Z,13.30
2022-12-03T03:56:06.985Z,12.38
2022-12-03T03:58:09.077Z,11.25
2022-12-03T04:00:11.567Z,12.60
2022-12-03T04:02:25.306Z,11.68
2022-12-03T04:04:28.097Z,16.13
2022-12-03T04:06:29.869Z,14.70
2022-12-03T04:08:31.833Z,11.45
2022-12-03T04:10:51.985Z,11.60
2022-12-03T04:12:56.511Z,18.05
2022-12-03T04:14:58.875Z,14.68
2022-12-03T04:17:00.679Z,14.30
2022-12-03T04:19:02.415Z,12.18
2022-12-03T04:21:22.707Z,11.15
2022-12-03T04:23:30.620Z,10.88
2022-12-03T04:25:51.819Z,12.82
2022-12-03T04:28:12.641Z,14.32
2022-12-03T04:30:14.764Z,16.02
2022-12-03T04:32:35.325Z,14.68
2022-12-03T04:35:12.384Z,13.70
2022-12-03T04:37:14.207Z,12.98
2022-12-03T04:39:16.138Z,15.98
2022-12-03T04:41:18.109Z,13.07
2022-12-03T04:43:19.838Z,13.93
2022-12-03T04:45:21.572Z,13.73
2022-12-03T04:47:23.452Z,17.05
2022-12-03T04:49:25.155Z,17.27
2022-12-03T04:51:26.892Z,13.50
2022-12-03T04:53:28.607Z,15.35
2022-12-03T04:55:30.427Z,13.63
2022-12-03T04:57:32.378Z,17.45
2022-12-03T04:59:35.451Z,12.68
2022-12-03T05:01:37.213Z,16.02
2022-12-03T05:03:39.863Z,15.35
2022-12-03T05:05:41.647Z,15.15
2022-12-03T05:07:43.521Z,14.38
2022-12-03T05:09:45.384Z,21.27
2022-12-03T05:11:53.167Z,14.80
2022-12-03T05:13:55.044Z,16.13
2022-12-03T05:15:56.738Z,17.00
2022-12-03T05:17:58.481Z,15.05
2022-12-03T05:20:18.833Z,13.80
2022-12-03T05:22:20.652Z,16.77
2022-12-03T05:24:22.443Z,14.85
2022-12-03T05:26:24.279Z,15.70
2022-12-03T05:28:26.041Z,13.25
2022-12-03T05:30:28.023Z,15.55
2022-12-03T05:32:29.784Z,20.38
2022-12-03T05:34:31.507Z,19.38
2022-12-03T05:36:33.194Z,15.18
2022-12-03T05:38:35.076Z,15.13
2022-12-03T05:40:36.811Z,20.05
2022-12-03T05:42:54.170Z,13.48
2022-12-03T05:44:56.404Z,19.02
2022-12-03T05:46:58.338Z,15.57
2022-12-03T05:49:00.694Z,14.75
2022-12-03T05:51:02.655Z,12.02
2022-12-03T05:53:04.915Z,13.07
2022-12-03T05:55:07.933Z,15.45
2022-12-03T05:57:09.746Z,13.88
2022-12-03T05:59:11.656Z,14.68
2022-12-03T06:01:13.347Z,13.60
2022-12-03T06:03:15.274Z,16.50
2022-12-03T06:05:19.539Z,15.13
2022-12-03T06:07:21.390Z,17.65
2022-12-03T06:09:23.207Z,17.90
2022-12-03T06:11:25.046Z,13.30
2022-12-03T06:13:26.788Z,13.38
2022-12-03T06:15:28.637Z,15.27
2022-12-03T06:17:30.520Z,17.63
2022-12-03T06:19:32.240Z,20.10
2022-12-03T06:21:33.923Z,19.13
2022-12-03T06:23:36.035Z,15.35
2022-12-03T06:25:37.803Z,15.93
2022-12-03T06:27:39.655Z,13.27
2022-12-03T06:29:41.364Z,16.02
2022-12-03T06:31:43.225Z,21.15
2022-12-03T06:33:45.002Z,23.30
2022-12-03T06:35:46.720Z,18.95
2022-12-03T06:37:48.476Z,23.58
2022-12-03T06:39:50.275Z,19.92
2022-12-03T06:41:52.099Z,18.55
2022-12-03T06:43:53.824Z,18.95
2022-12-03T06:45:55.633Z,15.82
2022-12-03T06:47:57.403Z,15.93
2022-12-03T06:49:59.050Z,18.90
2022-12-03T06:52:00.877Z,25.10
2022-12-03T06:54:02.864Z,15.13
2022-12-03T06:56:04.947Z,22.42
2022-12-03T06:58:09.646Z,27.42
2022-12-03T07:00:12.041Z,19.05
2022-12-03T07:02:13.907Z,16.83
2022-12-03T07:04:15.703Z,19.60
2022-12-03T07:06:17.536Z,22.65
2022-12-03T07:08:19.381Z,19.33
2022-12-03T07:10:22.132Z,19.88
2022-12-03T07:12:23.898Z,23.60
2022-12-03T07:14:25.666Z,17.80
2022-12-03T07:16:30.305Z,21.10
2022-12-03T07:18:32.054Z,17.30
2022-12-03T07:20:33.837Z,21.92
2022-12-03T07:22:35.584Z,19.95
2022-12-03T07:24:37.247Z,21.30
2022-12-03T07:26:39.038Z,24.23
2022-12-03T07:28:40.743Z,19.80
2022-12-03T07:30:42.424Z,20.17
2022-12-03T07:32:44.103Z,28.13
2022-12-03T07:34:45.901Z,15.93
2022-12-03T07:36:47.779Z,18.60
2022-12-03T07:38:49.778Z,19.65
2022-12-03T07:40:51.637Z,24.83
2022-12-03T07:42:53.446Z,18.05
2022-12-03T07:44:55.576Z,35.28
2022-12-03T07:46:58.263Z,23.98
2022-12-03T07:49:00.040Z,20.90
2022-12-03T07:51:01.844Z,18.15
2022-12-03T07:53:03.611Z,26.02
2022-12-03T07:55:05.837Z,21.33
2022-12-03T07:57:07.665Z,21.00
2022-12-03T07:59:09.519Z,20.02
2022-12-03T08:01:11.436Z,18.88
2022-12-03T08:03:13.360Z,19.70
2022-12-03T08:05:15.379Z,19.27
2022-12-03T08:07:17.103Z,17.65
2022-12-03T08:09:19.010Z,19.30
2022-12-03T08:11:20.889Z,21.15
2022-12-03T08:13:22.904Z,17.38
2022-12-03T08:15:25.768Z,15.38
2022-12-03T08:17:28.552Z,16.50
2022-12-03T08:19:30.675Z,18.33
2022-12-03T08:21:35.453Z,16.60
2022-12-03T08:23:37.274Z,18.17
2022-12-03T08:25:40.012Z,15.88
2022-12-03T08:27:50.696Z,22.27
2022-12-03T08:30:20.176Z,15.25
2022-12-03T08:32:24.293Z,15.82
2022-12-03T08:34:28.386Z,23.15
2022-12-03T08:36:31.364Z,22.48
2022-12-03T08:38:33.981Z,23.33
2022-12-03T08:40:39.124Z,16.00
2022-12-03T08:42:43.691Z,21.25
2022-12-03T08:44:45.449Z,24.45
2022-12-03T08:46:52.752Z,16.58
2022-12-03T08:48:54.516Z,18.30
2022-12-03T08:50:58.912Z,18.00
2022-12-03T08:53:24.793Z,22.45
2022-12-03T08:55:36.222Z,20.80
2022-12-03T08:57:38.022Z,21.85
2022-12-03T08:59:45.244Z,17.63
2022-12-03T09:01:48.297Z,18.55
2022-12-03T09:03:55.001Z,18.95
2022-12-03T09:05:56.857Z,20.33
2022-12-03T09:07:58.752Z,17.33
2022-12-03T09:10:00.496Z,16.17
2022-12-03T09:12:02.302Z,17.95
2022-12-03T09:14:04.332Z,26.13
2022-12-03T09:16:06.374Z,18.90
2022-12-03T09:18:08.323Z,21.35
2022-12-03T09:20:10.564Z,19.25
2022-12-03T09:22:12.358Z,21.23
2022-12-03T09:24:29.170Z,19.48
2022-12-03T09:26:30.898Z,19.92
2022-12-03T09:28:32.759Z,14.57
2022-12-03T09:30:34.516Z,13.20
2022-12-03T09:32:39.796Z,20.80
2022-12-03T09:34:42.717Z,15.48
2022-12-03T09:36:44.477Z,19.92
2022-12-03T09:38:48.276Z,23.10
2022-12-03T09:40:50.243Z,15.23
2022-12-03T09:42:52.327Z,16.25
2022-12-03T09:44:54.605Z,14.43
2022-12-03T09:47:00.101Z,14.93
2022-12-03T09:49:02.982Z,16.63
2022-12-03T09:51:04.918Z,15.38
2022-12-03T09:53:06.712Z,13.75
2022-12-03T09:55:15.188Z,17.63
2022-12-03T09:57:17.386Z,15.68
2022-12-03T09:59:19.184Z,15.35
2022-12-03T10:01:21.096Z,18.17
2022-12-03T10:03:29.858Z,13.70
2022-12-03T10:05:32.293Z,12.80
2022-12-03T10:07:34.231Z,14.98
2022-12-03T10:09:35.968Z,12.90
2022-12-03T10:11:38.186Z,13.30
2022-12-03T10:13:40.212Z,13.70
2022-12-03T10:15:42.078Z,13.18
2022-12-03T10:17:44.358Z,16.92
2022-12-03T10:19:46.299Z,10.52
2022-12-03T10:21:48.192Z,14.50
2022-12-03T10:24:19.831Z,16.00
2022-12-03T10:26:38.111Z,23.58
2022-12-03T10:28:42.274Z,15.48
2022-12-03T10:30:55.560Z,20.15
2022-12-03T10:32:58.777Z,26.42
2022-12-03T10:35:13.334Z,15.48
2022-12-03T10:37:20.869Z,13.98
2022-12-03T10:39:22.835Z,15.30
2022-12-03T10:41:26.894Z,14.85
2022-12-03T10:43:28.758Z,20.65
2022-12-03T10:45:30.568Z,17.45
2022-12-03T10:47:32.453Z,13.43
2022-12-03T10:49:34.792Z,17.10
2022-12-03T10:51:37.241Z,17.10
2022-12-03T10:53:40.658Z,14.60
2022-12-03T10:55:43.572Z,17.98
2022-12-03T10:57:46.282Z,12.23
2022-12-03T10:59:48.279Z,17.48
2022-12-03T11:01:50.263Z,20.27
2022-12-03T11:03:53.172Z,15.85
2022-12-03T11:05:56.543Z,13.15
2022-12-03T11:07:58.363Z,13.93
2022-12-03T11:10:01.898Z,13.88
2022-12-03T11:12:08.282Z,13.50
2022-12-03T11:14:10.876Z,14.00
2022-12-03T11:16:13.849Z,14.15
2022-12-03T11:18:37.191Z,14.18
2022-12-03T11:20:47.570Z,12.38
2022-12-03T11:22:56.208Z,15.45
2022-12-03T11:25:26.423Z,17.02
2022-12-03T11:27:28.199Z,14.35
2022-12-03T11:29:51.795Z,15.13
2022-12-03T11:31:53.486Z,14.77
2022-12-03T11:34:20.915Z,15.48
2022-12-03T11:36:42.081Z,14.77
2022-12-03T11:38:52.967Z,13.13
2022-12-03T11:41:14.562Z,12.60
2022-12-03T11:43:57.040Z,14.38
2022-12-03T11:46:08.893Z,13.20
2022-12-03T11:48:13.908Z,16.33
2022-12-03T11:50:39.761Z,12.10
2022-12-03T11:52:44.876Z,15.25
2022-12-03T11:54:50.036Z,13.10
2022-12-03T11:56:52.793Z,12.98
2022-12-03T11:59:02.428Z,13.82
2022-12-03T12:01:07.057Z,12.90
2022-12-03T12:03:33.107Z,12.73
2022-12-03T12:05:35.708Z,12.35
2022-12-03T12:07:37.648Z,14.63
2022-12-03T12:09:54.201Z,19.38
2022-12-03T12:11:56.376Z,13.82
2022-12-03T12:13:59.903Z,12.10
2022-12-03T12:16:05.172Z,12.15
2022-12-03T12:18:39.709Z,12.02
2022-12-03T12:20:41.585Z,14.90
2022-12-03T12:22:43.459Z,11.48
2022-12-03T12:24:47.143Z,12.18
2022-12-03T12:26:52.384Z,13.10
2022-12-03T12:28:54.161Z,10.63
2022-12-03T12:30:55.973Z,12.00
2022-12-03T12:33:10.965Z,11.52
2022-12-03T12:35:13.724Z,9.20
2022-12-03T12:37:24.039Z,10.68
2022-12-03T12:39:26.084Z,13.48
2022-12-03T12:41:27.838Z,12.30
2022-12-03T12:43:32.587Z,12.05
2022-12-03T12:45:35.594Z,12.75
2022-12-03T12:47:37.473Z,13.13
2022-12-03T12:49:39.298Z,13.55
2022-12-03T12:51:45.849Z,11.52
2022-12-03T12:53:47.995Z,10.95
2022-12-03T12:56:07.166Z,12.93
2022-12-03T12:58:15.626Z,11.40
2022-12-03T13:00:23.082Z,12.82
2022-12-03T13:02:31.152Z,15.55
2022-12-03T13:04:33.260Z,11.95
2022-12-03T13:06:34.968Z,10.40
2022-12-03T13:08:43.099Z,12.35
2022-12-03T13:10:44.796Z,11.98
2022-12-03T13:12:46.527Z,12.00
2022-12-03T13:14:48.351Z,11.88
2022-12-03T13:16:52.294Z,10.27
2022-12-03T13:18:55.822Z,12.38
2022-12-03T13:20:57.710Z,10.75
2022-12-03T13:22:59.382Z,11.52
2022-12-03T13:25:04.167Z,11.10
2022-12-03T13:27:23.198Z,13.13
2022-12-03T13:29:26.463Z,15.32
2022-12-03T13:31:31.093Z,10.68
2022-12-03T13:33:33.506Z,11.65
2022-12-03T13:35:36.451Z,10.88
2022-12-03T13:37:38.778Z,12.85
2022-12-03T13:39:48.147Z,12.68
2022-12-03T13:42:08.979Z,15.07
2022-12-03T13:44:16.896Z,13.82
2022-12-03T13:46:18.758Z,13.27
2022-12-03T13:48:32.012Z,11.15
2022-12-03T13:50:37.788Z,12.30
2022-12-03T13:52:39.497Z,14.10
2022-12-03T13:54:41.531Z,13.98
2022-12-03T13:56:43.476Z,11.85
2022-12-03T13:58:45.260Z,13.40
2022-12-03T14:00:47.343Z,11.88
2022-12-03T14:02:49.341Z,16.10
2022-12-03T14:04:54.208Z,12.77
2022-12-03T14:07:00.226Z,13.57
2022-12-03T14:09:02.005Z,12.70
2022-12-03T14:11:04.096Z,12.75
2022-12-03T14:13:05.812Z,13.52
2022-12-03T14:15:09.201Z,12.18
2022-12-03T14:17:11.853Z,12.77
2022-12-03T14:19:13.764Z,13.45
2022-12-03T14:21:15.532Z,10.88
2022-12-03T14:23:17.299Z,12.68
2022-12-03T14:25:19.148Z,14.00
2022-12-03T14:27:21.380Z,11.68
2022-12-03T14:29:23.207Z,13.02
2022-12-03T14:31:25.000Z,12.32
2022-12-03T14:33:26.780Z,13.70
2022-12-03T14:35:28.504Z,11.77
2022-12-03T14:37:30.286Z,12.00
2022-12-03T14:39:32.014Z,15.07
2022-12-03T14:41:52.262Z,11.57
2022-12-03T14:43:54.021Z,13.60
2022-12-03T14:45:55.911Z,11.77
2022-12-03T14:47:57.662Z,13.85
2022-12-03T14:49:59.483Z,12.18
2022-12-03T14:52:01.310Z,16.65
2022-12-03T14:54:03.144Z,14.65
2022-12-03T14:56:05.345Z,13.75
2022-12-03T14:58:07.047Z,17.50
2022-12-03T15:00:09.571Z,13.50
2022-12-03T15:02:12.562Z,14.73
2022-12-03T15:04:14.546Z,14.55
2022-12-03T15:06:16.367Z,17.45
2022-12-03T15:08:18.204Z,11.88
2022-12-03T15:10:20.396Z,14.30
2022-12-03T15:12:22.168Z,12.95
2022-12-03T15:14:24.063Z,16.48
2022-12-03T15:16:25.920Z,13.40
2022-12-03T15:18:27.805Z,14.00
2022-12-03T15:20:30.016Z,16.15
2022-12-03T15:22:31.887Z,12.98
2022-12-03T15:24:33.691Z,14.80
2022-12-03T15:26:35.530Z,17.90
2022-12-03T15:28:37.359Z,16.38
2022-12-03T15:30:39.078Z,18.92
2022-12-03T15:32:40.844Z,20.20
2022-12-03T15:34:42.702Z,16.35
2022-12-03T15:36:44.384Z,14.13
2022-12-03T15:38:46.206Z,16.40
2022-12-03T15:40:48.007Z,16.25
2022-12-03T15:42:49.761Z,17.08
2022-12-03T15:44:51.558Z,16.38
2022-12-03T15:46:53.270Z,15.32
2022-12-03T15:48:55.810Z,15.30
2022-12-03T15:50:57.637Z,20.27
2022-12-03T15:52:59.457Z,21.58
2022-12-03T15:55:01.519Z,20.73
2022-12-03T15:57:03.213Z,18.05
2022-12-03T15:59:04.998Z,19.73
2022-12-03T16:01:07.800Z,14.63
2022-12-03T16:03:09.588Z,19.20
2022-12-03T16:05:12.752Z,20.05
2022-12-03T16:07:14.500Z,21.08
2022-12-03T16:09:16.271Z,18.70
2022-12-03T16:11:18.082Z,19.67
2022-12-03T16:13:19.779Z,19.70
2022-12-03T16:15:26.733Z,23.83
2022-12-03T16:17:29.045Z,16.85
2022-12-03T16:19:30.809Z,17.02
2022-12-03T16:21:34.721Z,17.88
2022-12-03T16:23:36.877Z,18.42
2022-12-03T16:25:38.636Z,16.98
2022-12-03T16:27:40.524Z,19.00
2022-12-03T16:29:42.244Z,21.88
2022-12-03T16:31:44.471Z,23.33
2022-12-03T16:33:46.273Z,17.63
2022-12-03T16:35:48.189Z,20.35
2022-12-03T16:37:50.026Z,15.52
2022-12-03T16:39:52.085Z,16.55
2022-12-03T16:41:54.138Z,28.40
2022-12-03T16:43:55.949Z,21.25
2022-12-03T16:46:20.758Z,20.08
2022-12-03T16:48:23.295Z,17.25
2022-12-03T16:50:29.977Z,20.77
2022-12-03T16:52:32.240Z,17.75
2022-12-03T16:54:34.035Z,26.63
2022-12-03T16:56:35.913Z,17.52
2022-12-03T16:58:37.961Z,17.92
2022-12-03T17:00:39.669Z,16.25
2022-12-03T17:02:41.565Z,22.95
2022-12-03T17:04:43.585Z,14.73
2022-12-03T17:06:45.375Z,19.20
2022-12-03T17:08:49.839Z,15.95
2022-12-03T17:10:52.217Z,15.48
2022-12-03T17:13:09.308Z,18.65
2022-12-03T17:15:12.201Z,18.27
2022-12-03T17:17:14.076Z,22.48
2022-12-03T17:19:16.513Z,21.98
2022-12-03T17:21:18.380Z,19.25
2022-12-03T17:23:20.175Z,17.95
2022-12-03T17:25:21.966Z,18.48
2022-12-03T17:27:25.036Z,20.65
2022-12-03T17:29:26.971Z,20.40
2022-12-03T17:31:28.938Z,18.85
2022-12-03T17:33:30.803Z,17.73
2022-12-03T17:35:32.685Z,18.85
2022-12-03T17:37:37.476Z,20.15
2022-12-03T17:39:39.382Z,18.10
2022-12-03T17:41:41.257Z,18.70
2022-12-03T17:43:43.069Z,18.70
2022-12-03T17:45:44.775Z,27.25
2022-12-03T17:47:46.525Z,17.85
2022-12-03T17:49:48.309Z,22.58
2022-12-03T17:51:50.060Z,17.95
2022-12-03T17:53:51.938Z,15.38
2022-12-03T17:55:53.627Z,17.23
2022-12-03T17:57:55.410Z,21.33
2022-12-03T17:59:57.437Z,23.27
2022-12-03T18:01:59.353Z,19.75
2022-12-03T18:04:01.273Z,18.30
2022-12-03T18:06:03.827Z,16.92
2022-12-03T18:08:06.252Z,14.70
2022-12-03T18:10:08.366Z,16.33
2022-12-03T18:12:10.113Z,15.35
2022-12-03T18:14:13.482Z,22.15
2022-12-03T18:16:15.828Z,20.08
2022-12-03T18:18:17.844Z,22.02
2022-12-03T18:20:19.552Z,18.00
2022-12-03T18:22:21.537Z,16.15
2022-12-03T18:24:23.630Z,15.93
2022-12-03T18:26:25.475Z,21.77
2022-12-03T18:28:27.556Z,17.25
2022-12-03T18:30:29.398Z,15.45
2022-12-03T18:32:31.376Z,20.10
2022-12-03T18:34:36.446Z,20.05
2022-12-03T18:36:38.423Z,18.75
2022-12-03T18:38:40.221Z,17.02
2022-12-03T18:40:43.183Z,18.58
2022-12-03T18:42:45.042Z,16.15
2022-12-03T18:44:49.853Z,14.35
2022-12-03T18:46:53.869Z,24.48
2022-12-03T18:48:56.191Z,17.35
2022-12-03T18:50:58.002Z,18.65
2022-12-03T18:52:59.778Z,25.77
2022-12-03T18:55:01.854Z,15.82
2022-12-03T18:57:03.929Z,17.20
2022-12-03T18:59:07.481Z,17.17
2022-12-03T19:01:17.334Z,20.67
2022-12-03T19:03:19.355Z,22.77
2022-12-03T19:05:21.145Z,21.13
2022-12-03T19:07:23.004Z,20.55
2022-12-03T19:09:25.147Z,16.48
2022-12-03T19:11:26.911Z,23.05
2022-12-03T19:13:28.787Z,14.23
2022-12-03T19:15:30.539Z,18.45
2022-12-03T19:17:32.574Z,20.95
2022-12-03T19:19:34.428Z,15.82
2022-12-03T19:21:36.296Z,26.05
2022-12-03T19:23:38.541Z,21.13
2022-12-03T19:25:40.555Z,21.52
2022-12-03T19:27:42.895Z,16.77
2022-12-03T19:29:48.838Z,18.63
2022-12-03T19:31:51.568Z,19.85
2022-12-03T19:33:54.810Z,21.48
2022-12-03T19:35:58.065Z,16.35
2022-12-03T19:37:59.865Z,21.45
2022-12-03T19:40:01.694Z,19.83
2022-12-03T19:42:03.581Z,18.38
2022-12-03T19:44:10.763Z,18.58
2022-12-03T19:46:13.052Z,18.63
2022-12-03T19:48:14.812Z,20.20
2022-12-03T19:50:22.649Z,17.55
2022-12-03T19:52:25.552Z,23.10
2022-12-03T19:54:30.489Z,15.18
2022-12-03T19:56:32.510Z,21.58
2022-12-03T19:58:34.712Z,21.98
2022-12-03T20:00:36.624Z,17.90
2022-12-03T20:02:38.403Z,15.38
2022-12-03T20:04:40.194Z,22.73
2022-12-03T20:06:41.999Z,20.63
2022-12-03T20:08:44.588Z,18.02
2022-12-03T20:10:46.351Z,17.52
2022-12-03T20:12:48.128Z,22.95
2022-12-03T20:14:50.228Z,20.05
2022-12-03T20:16:52.110Z,18.83
2022-12-03T20:18:59.401Z,17.80
2022-12-03T20:21:02.115Z,18.70
2022-12-03T20:23:03.949Z,13.82
2022-12-03T20:25:06.642Z,19.00
2022-12-03T20:27:08.411Z,20.30
2022-12-03T20:29:10.174Z,18.48
2022-12-03T20:31:14.889Z,17.35
2022-12-03T20:33:19.810Z,16.90
2022-12-03T20:35:21.588Z,17.73
2022-12-03T20:37:23.348Z,18.88
2022-12-03T20:39:25.215Z,18.65
2022-12-03T20:41:27.188Z,14.90
2022-12-03T20:43:29.184Z,20.23
2022-12-03T20:45:31.003Z,19.42
2022-12-03T20:47:32.864Z,15.98
2022-12-03T20:49:34.668Z,21.13
2022-12-03T20:51:36.870Z,21.92
2022-12-03T20:53:38.781Z,17.75
2022-12-03T20:55:40.907Z,17.08
2022-12-03T20:57:42.625Z,20.33
2022-12-03T20:59:44.382Z,23.60
2022-12-03T21:01:46.334Z,23.60
2022-12-03T21:03:49.741Z,16.10
2022-12-03T21:05:59.358Z,16.38
2022-12-03T21:08:01.242Z,23.05
2022-12-03T21:10:03.191Z,17.65
2022-12-03T21:12:05.080Z,15.75
2022-12-03T21:14:06.903Z,22.30
2022-12-03T21:16:11.497Z,15.55
2022-12-03T21:18:15.640Z,19.88
2022-12-03T21:20:21.009Z,16.33
2022-12-03T21:22:23.151Z,23.20
2022-12-03T21:24:25.013Z,19.52
2022-12-03T21:26:26.824Z,23.58
2022-12-03T21:28:29.019Z,22.88
2022-12-03T21:30:30.958Z,21.73
2022-12-03T21:32:32.796Z,17.45
2022-12-03T21:34:36.555Z,15.52
2022-12-03T21:36:38.681Z,15.55
2022-12-03T21:38:41.590Z,15.98
2022-12-03T21:40:43.332Z,16.27
2022-12-03T21:42:45.204Z,16.60
2022-12-03T21:44:47.015Z,14.23
2022-12-03T21:47:11.511Z,15.10
2022-12-03T21:49:10.474Z,15.50
2022-12-03T21:51:14.225Z,21.27
2022-12-03T21:53:15.970Z,15.40
2022-12-03T21:55:20.397Z,18.10
2022-12-03T21:57:22.130Z,24.67
2022-12-03T21:59:23.910Z,25.88
2022-12-03T22:01:25.876Z,15.15
2022-12-03T22:03:27.803Z,19.58
2022-12-03T22:05:29.554Z,18.13
2022-12-03T22:07:33.356Z,14.30
2022-12-03T22:09:35.320Z,20.48
2022-12-03T22:11:37.268Z,18.70
2022-12-03T22:13:39.303Z,21.55
2022-12-03T22:15:41.045Z,19.02
2022-12-03T22:17:42.835Z,13.25
2022-12-03T22:19:44.523Z,19.88
2022-12-03T22:21:46.715Z,16.50
2022-12-03T22:23:48.569Z,16.58
2022-12-03T22:25:59.203Z,24.98
2022-12-03T22:28:00.952Z,18.90
2022-12-03T22:30:03.467Z,18.48
2022-12-03T22:32:33.647Z,22.60
2022-12-03T22:34:35.514Z,18.55
2022-12-03T22:36:37.481Z,15.80
2022-12-03T22:38:39.316Z,18.58
2022-12-03T22:40:41.063Z,20.35
2022-12-03T22:42:47.776Z,18.40
2022-12-03T22:44:52.482Z,18.05
2022-12-03T22:46:54.330Z,19.50
2022-12-03T22:48:58.468Z,15.40
2022-12-03T22:51:03.823Z,15.45
2022-12-03T22:53:05.554Z,19.95
2022-12-03T22:55:07.812Z,17.15
2022-12-03T22:57:09.646Z,17.92
2022-12-03T22:59:11.495Z,17.83
2022-12-03T23:01:30.843Z,19.92
2022-12-03T23:03:32.869Z,14.80
2022-12-03T23:05:38.628Z,21.33
2022-12-03T23:07:41.807Z,15.75
2022-12-03T23:09:43.721Z,18.88
2022-12-03T23:11:45.914Z,13.63
2022-12-03T23:13:47.756Z,14.27
2022-12-03T23:15:51.719Z,16.63
2022-12-03T23:17:53.518Z,23.80
2022-12-03T23:19:55.456Z,15.00
2022-12-03T23:21:58.057Z,13.32
2022-12-03T23:24:01.468Z,21.95
2022-12-03T23:26:06.391Z,15.98
2022-12-03T23:28:09.011Z,14.50
2022-12-03T23:30:12.227Z,15.05
2022-12-03T23:32:13.984Z,20.20
2022-12-03T23:34:15.823Z,15.35
2022-12-03T23:36:18.145Z,13.45
2022-12-03T23:38:20.256Z,19.15
2022-12-03T23:40:22.391Z,17.60
2022-12-03T23:42:24.306Z,14.13
2022-12-03T23:44:27.733Z,13.73
2022-12-03T23:46:29.706Z,12.88
2022-12-03T23:48:31.652Z,15.20
2022-12-03T23:50:34.971Z,17.25
2022-12-03T23:52:36.774Z,15.07
2022-12-03T23:54:38.616Z,14.57
2022-12-03T23:56:41.032Z,13.27
2022-12-03T23:58:43.531Z,13.57
